sensor_id;sensor_type;location;lat;lon;timestamp;pressure;altitude;pressure_sealevel;temperature;humidity
23166;BME280;11751;42.700;24.170;2023-01-28T00:00:32;93088.03;;;1.51;nan
23166;BME280;11751;42.700;24.170;2023-01-28T00:02:57;93081.06;;;1.63;nan
23166;BME280;11751;42.700;24.170;2023-01-28T00:05:22;93080.19;;;1.55;nan
23166;BME280;11751;42.700;24.170;2023-01-28T00:07:48;93089.88;;;1.61;nan
23166;BME280;11751;42.700;24.170;2023-01-28T00:10:14;93091.75;;;1.53;nan
23166;BME280;11751;42.700;24.170;2023-01-28T00:12:39;93094.66;;;1.61;nan
23166;BME280;11751;42.700;24.170;2023-01-28T00:15:04;93107.00;;;1.72;nan
23166;BME280;11751;42.700;24.170;2023-01-28T00:17:30;93087.38;;;1.26;nan
23166;BME280;11751;42.700;24.170;2023-01-28T00:19:55;93086.00;;;1.33;nan
23166;BME280;11751;42.700;24.170;2023-01-28T00:22:20;93097.94;;;1.41;nan
23166;BME280;11751;42.700;24.170;2023-01-28T00:24:46;93095.72;;;1.21;nan
23166;BME280;11751;42.700;24.170;2023-01-28T00:27:11;93106.13;;;1.28;nan
23166;BME280;11751;42.700;24.170;2023-01-28T00:29:37;93104.03;;;1.34;nan
23166;BME280;11751;42.700;24.170;2023-01-28T00:32:02;93109.88;;;1.49;nan
23166;BME280;11751;42.700;24.170;2023-01-28T00:34:28;93117.75;;;1.58;nan
23166;BME280;11751;42.700;24.170;2023-01-28T00:36:53;93120.94;;;1.62;nan
23166;BME280;11751;42.700;24.170;2023-01-28T00:39:21;93117.16;;;1.65;nan
23166;BME280;11751;42.700;24.170;2023-01-28T00:41:47;93125.81;;;1.56;nan
23166;BME280;11751;42.700;24.170;2023-01-28T00:44:12;93121.94;;;1.46;nan
23166;BME280;11751;42.700;24.170;2023-01-28T00:46:37;93116.84;;;1.31;nan
23166;BME280;11751;42.700;24.170;2023-01-28T00:49:03;93121.19;;;1.27;nan
23166;BME280;11751;42.700;24.170;2023-01-28T00:51:28;93119.25;;;1.22;nan
23166;BME280;11751;42.700;24.170;2023-01-28T00:53:54;93112.38;;;1.10;nan
23166;BME280;11751;42.700;24.170;2023-01-28T00:56:19;93136.66;;;1.11;nan
23166;BME280;11751;42.700;24.170;2023-01-28T00:58:44;93119.97;;;1.04;nan
23166;BME280;11751;42.700;24.170;2023-01-28T01:01:10;93127.56;;;0.98;nan
23166;BME280;11751;42.700;24.170;2023-01-28T01:03:36;93135.00;;;1.03;nan
23166;BME280;11751;42.700;24.170;2023-01-28T01:06:02;93135.69;;;1.09;nan
23166;BME280;11751;42.700;24.170;2023-01-28T01:08:27;93135.94;;;1.11;nan
23166;BME280;11751;42.700;24.170;2023-01-28T01:11:01;93138.81;;;1.00;nan
23166;BME280;11751;42.700;24.170;2023-01-28T01:13:27;93138.31;;;1.20;nan
23166;BME280;11751;42.700;24.170;2023-01-28T01:18:33;93135.59;;;0.96;nan
23166;BME280;11751;42.700;24.170;2023-01-28T01:20:59;93142.78;;;1.04;nan
23166;BME280;11751;42.700;24.170;2023-01-28T01:23:25;93139.66;;;1.13;nan
23166;BME280;11751;42.700;24.170;2023-01-28T01:25:50;93140.63;;;1.16;nan
23166;BME280;11751;42.700;24.170;2023-01-28T01:28:16;93145.69;;;1.12;nan
23166;BME280;11751;42.700;24.170;2023-01-28T01:30:41;93144.69;;;1.09;nan
23166;BME280;11751;42.700;24.170;2023-01-28T01:33:06;93146.59;;;1.20;nan
23166;BME280;11751;42.700;24.170;2023-01-28T01:35:31;93139.94;;;1.10;nan
23166;BME280;11751;42.700;24.170;2023-01-28T01:37:57;93139.03;;;1.02;nan
23166;BME280;11751;42.700;24.170;2023-01-28T01:40:22;93151.28;;;1.06;nan
23166;BME280;11751;42.700;24.170;2023-01-28T01:42:47;93150.44;;;1.11;nan
23166;BME280;11751;42.700;24.170;2023-01-28T01:45:13;93139.03;;;1.02;nan
23166;BME280;11751;42.700;24.170;2023-01-28T01:47:46;93143.06;;;1.01;nan
23166;BME280;11751;42.700;24.170;2023-01-28T01:50:17;93141.34;;;0.98;nan
23166;BME280;11751;42.700;24.170;2023-01-28T01:52:43;93150.06;;;1.02;nan
23166;BME280;11751;42.700;24.170;2023-01-28T01:55:11;93152.59;;;1.00;nan
23166;BME280;11751;42.700;24.170;2023-01-28T01:57:38;93154.59;;;0.99;nan
23166;BME280;11751;42.700;24.170;2023-01-28T02:00:05;93153.63;;;0.97;nan
23166;BME280;11751;42.700;24.170;2023-01-28T02:03:05;93156.03;;;1.06;nan
23166;BME280;11751;42.700;24.170;2023-01-28T02:05:24;93162.00;;;1.10;nan
23166;BME280;11751;42.700;24.170;2023-01-28T02:07:51;93159.41;;;1.17;nan
23166;BME280;11751;42.700;24.170;2023-01-28T02:10:19;93150.97;;;1.10;nan
23166;BME280;11751;42.700;24.170;2023-01-28T02:12:46;93162.56;;;1.03;nan
23166;BME280;11751;42.700;24.170;2023-01-28T02:15:15;93164.16;;;1.17;nan
23166;BME280;11751;42.700;24.170;2023-01-28T02:17:41;93164.22;;;1.11;nan
23166;BME280;11751;42.700;24.170;2023-01-28T02:23:04;93163.78;;;0.83;nan
23166;BME280;11751;42.700;24.170;2023-01-28T02:30:50;93162.72;;;0.92;nan
23166;BME280;11751;42.700;24.170;2023-01-28T02:33:17;93170.28;;;0.86;nan
23166;BME280;11751;42.700;24.170;2023-01-28T02:35:56;93165.06;;;0.82;nan
23166;BME280;11751;42.700;24.170;2023-01-28T02:38:27;93169.97;;;0.89;nan
23166;BME280;11751;42.700;24.170;2023-01-28T02:41:02;93174.63;;;1.00;nan
23166;BME280;11751;42.700;24.170;2023-01-28T02:43:34;93174.06;;;1.07;nan
23166;BME280;11751;42.700;24.170;2023-01-28T02:46:01;93171.59;;;1.03;nan
23166;BME280;11751;42.700;24.170;2023-01-28T02:48:48;93174.53;;;1.11;nan
23166;BME280;11751;42.700;24.170;2023-01-28T02:51:20;93170.94;;;1.16;nan
23166;BME280;11751;42.700;24.170;2023-01-28T02:53:51;93172.19;;;1.15;nan
23166;BME280;11751;42.700;24.170;2023-01-28T03:01:29;93176.00;;;1.12;nan
23166;BME280;11751;42.700;24.170;2023-01-28T03:06:30;93173.47;;;1.14;nan
23166;BME280;11751;42.700;24.170;2023-01-28T03:09:00;93172.91;;;1.21;nan
23166;BME280;11751;42.700;24.170;2023-01-28T03:11:49;93173.81;;;1.29;nan
23166;BME280;11751;42.700;24.170;2023-01-28T03:14:34;93178.97;;;1.14;nan
23166;BME280;11751;42.700;24.170;2023-01-28T03:20:24;93179.31;;;1.29;nan
23166;BME280;11751;42.700;24.170;2023-01-28T03:23:09;93174.22;;;1.33;nan
23166;BME280;11751;42.700;24.170;2023-01-28T03:25:55;93173.03;;;1.28;nan
23166;BME280;11751;42.700;24.170;2023-01-28T03:28:40;93174.06;;;1.07;nan
23166;BME280;11751;42.700;24.170;2023-01-28T03:31:25;93180.59;;;1.04;nan
23166;BME280;11751;42.700;24.170;2023-01-28T03:34:09;93182.44;;;1.20;nan
23166;BME280;11751;42.700;24.170;2023-01-28T03:36:54;93189.75;;;1.17;nan
23166;BME280;11751;42.700;24.170;2023-01-28T03:39:24;93186.44;;;1.19;nan
23166;BME280;11751;42.700;24.170;2023-01-28T03:44:20;93190.69;;;1.20;nan
23166;BME280;11751;42.700;24.170;2023-01-28T03:47:04;93191.50;;;1.15;nan
23166;BME280;11751;42.700;24.170;2023-01-28T03:49:31;93188.84;;;1.28;nan
23166;BME280;11751;42.700;24.170;2023-01-28T03:51:56;93181.25;;;1.34;nan
23166;BME280;11751;42.700;24.170;2023-01-28T03:54:21;93183.72;;;1.37;nan
23166;BME280;11751;42.700;24.170;2023-01-28T03:56:47;93182.00;;;1.34;nan
23166;BME280;11751;42.700;24.170;2023-01-28T03:59:13;93189.88;;;1.25;nan
23166;BME280;11751;42.700;24.170;2023-01-28T04:01:38;93191.53;;;1.33;nan
23166;BME280;11751;42.700;24.170;2023-01-28T04:04:04;93187.53;;;1.34;nan
23166;BME280;11751;42.700;24.170;2023-01-28T04:06:29;93184.06;;;1.28;nan
23166;BME280;11751;42.700;24.170;2023-01-28T04:08:55;93190.69;;;1.20;nan
23166;BME280;11751;42.700;24.170;2023-01-28T04:11:23;93193.28;;;1.12;nan
23166;BME280;11751;42.700;24.170;2023-01-28T04:13:50;93186.44;;;1.19;nan
23166;BME280;11751;42.700;24.170;2023-01-28T04:16:16;93183.00;;;1.13;nan
23166;BME280;11751;42.700;24.170;2023-01-28T04:18:42;93187.59;;;1.05;nan
23166;BME280;11751;42.700;24.170;2023-01-28T04:21:08;93192.19;;;1.21;nan
23166;BME280;11751;42.700;24.170;2023-01-28T04:23:33;93193.00;;;1.16;nan
23166;BME280;11751;42.700;24.170;2023-01-28T04:25:59;93198.22;;;1.19;nan
23166;BME280;11751;42.700;24.170;2023-01-28T04:28:24;93200.91;;;1.25;nan
23166;BME280;11751;42.700;24.170;2023-01-28T04:30:50;93189.44;;;1.21;nan
23166;BME280;11751;42.700;24.170;2023-01-28T04:33:15;93191.50;;;1.15;nan
23166;BME280;11751;42.700;24.170;2023-01-28T04:35:41;93195.25;;;1.17;nan
23166;BME280;11751;42.700;24.170;2023-01-28T04:38:06;93204.72;;;0.98;nan
23166;BME280;11751;42.700;24.170;2023-01-28T04:40:32;93204.31;;;1.12;nan
23166;BME280;11751;42.700;24.170;2023-01-28T04:42:57;93202.75;;;1.17;nan
23166;BME280;11751;42.700;24.170;2023-01-28T04:45:23;93207.69;;;1.24;nan
23166;BME280;11751;42.700;24.170;2023-01-28T04:47:48;93209.19;;;1.25;nan
23166;BME280;11751;42.700;24.170;2023-01-28T04:50:14;93213.66;;;1.28;nan
23166;BME280;11751;42.700;24.170;2023-01-28T04:52:39;93217.00;;;1.21;nan
23166;BME280;11751;42.700;24.170;2023-01-28T04:55:05;93219.19;;;1.28;nan
23166;BME280;11751;42.700;24.170;2023-01-28T04:57:30;93228.66;;;1.32;nan
23166;BME280;11751;42.700;24.170;2023-01-28T04:59:55;93224.69;;;1.28;nan
23166;BME280;11751;42.700;24.170;2023-01-28T05:02:21;93217.31;;;1.17;nan
23166;BME280;11751;42.700;24.170;2023-01-28T05:04:46;93224.63;;;1.09;nan
23166;BME280;11751;42.700;24.170;2023-01-28T05:07:11;93228.72;;;1.03;nan
23166;BME280;11751;42.700;24.170;2023-01-28T05:09:36;93234.50;;;0.99;nan
23166;BME280;11751;42.700;24.170;2023-01-28T05:12:02;93224.69;;;1.04;nan
23166;BME280;11751;42.700;24.170;2023-01-28T05:14:27;93233.44;;;1.08;nan
23166;BME280;11751;42.700;24.170;2023-01-28T05:16:53;93231.88;;;1.12;nan
23166;BME280;11751;42.700;24.170;2023-01-28T05:19:18;93232.59;;;1.13;nan
23166;BME280;11751;42.700;24.170;2023-01-28T05:21:43;93240.09;;;1.18;nan
23166;BME280;11751;42.700;24.170;2023-01-28T05:24:08;93245.59;;;1.18;nan
23166;BME280;11751;42.700;24.170;2023-01-28T05:26:34;93244.09;;;1.17;nan
23166;BME280;11751;42.700;24.170;2023-01-28T05:28:59;93238.31;;;1.20;nan
23166;BME280;11751;42.700;24.170;2023-01-28T05:31:25;93240.03;;;1.23;nan
23166;BME280;11751;42.700;24.170;2023-01-28T05:33:50;93243.38;;;1.16;nan
23166;BME280;11751;42.700;24.170;2023-01-28T05:36:17;93241.66;;;1.13;nan
23166;BME280;11751;42.700;24.170;2023-01-28T05:38:42;93242.72;;;1.05;nan
23166;BME280;11751;42.700;24.170;2023-01-28T05:41:07;93250.19;;;1.10;nan
23166;BME280;11751;42.700;24.170;2023-01-28T05:43:32;93245.94;;;1.09;nan
23166;BME280;11751;42.700;24.170;2023-01-28T05:45:58;93243.06;;;0.96;nan
23166;BME280;11751;42.700;24.170;2023-01-28T05:48:23;93242.19;;;0.82;nan
23166;BME280;11751;42.700;24.170;2023-01-28T05:50:48;93248.78;;;0.74;nan
23166;BME280;11751;42.700;24.170;2023-01-28T05:53:14;93251.91;;;0.89;nan
23166;BME280;11751;42.700;24.170;2023-01-28T05:55:39;93256.22;;;0.84;nan
23166;BME280;11751;42.700;24.170;2023-01-28T05:58:04;93263.41;;;0.93;nan
23166;BME280;11751;42.700;24.170;2023-01-28T06:00:29;93260.31;;;1.02;nan
23166;BME280;11751;42.700;24.170;2023-01-28T06:02:55;93267.75;;;1.07;nan
23166;BME280;11751;42.700;24.170;2023-01-28T06:05:20;93268.25;;;1.11;nan
23166;BME280;11751;42.700;24.170;2023-01-28T06:07:45;93275.69;;;1.16;nan
23166;BME280;11751;42.700;24.170;2023-01-28T06:10:11;93279.66;;;1.20;nan
23166;BME280;11751;42.700;24.170;2023-01-28T06:12:36;93277.19;;;1.17;nan
23166;BME280;11751;42.700;24.170;2023-01-28T06:15:02;93281.69;;;1.20;nan
23166;BME280;11751;42.700;24.170;2023-01-28T06:17:27;93281.09;;;1.27;nan
23166;BME280;11751;42.700;24.170;2023-01-28T06:19:53;93287.19;;;1.20;nan
23166;BME280;11751;42.700;24.170;2023-01-28T06:22:18;93286.31;;;1.30;nan
23166;BME280;11751;42.700;24.170;2023-01-28T06:24:43;93291.53;;;1.34;nan
23166;BME280;11751;42.700;24.170;2023-01-28T06:27:08;93299.09;;;1.33;nan
23166;BME280;11751;42.700;24.170;2023-01-28T06:29:34;93305.75;;;1.43;nan
23166;BME280;11751;42.700;24.170;2023-01-28T06:31:59;93306.19;;;1.47;nan
23166;BME280;11751;42.700;24.170;2023-01-28T06:34:24;93303.13;;;1.56;nan
23166;BME280;11751;42.700;24.170;2023-01-28T06:36:50;93311.28;;;1.62;nan
23166;BME280;11751;42.700;24.170;2023-01-28T06:39:17;93325.78;;;1.67;nan
23166;BME280;11751;42.700;24.170;2023-01-28T06:41:42;93327.97;;;1.74;nan
23166;BME280;11751;42.700;24.170;2023-01-28T06:44:07;93331.63;;;1.82;nan
23166;BME280;11751;42.700;24.170;2023-01-28T06:46:33;93328.50;;;1.91;nan
23166;BME280;11751;42.700;24.170;2023-01-28T06:48:58;93341.81;;;1.93;nan
23166;BME280;11751;42.700;24.170;2023-01-28T06:51:23;93341.28;;;1.94;nan
23166;BME280;11751;42.700;24.170;2023-01-28T06:53:49;93339.50;;;1.97;nan
23166;BME280;11751;42.700;24.170;2023-01-28T06:56:14;93346.38;;;1.67;nan
23166;BME280;11751;42.700;24.170;2023-01-28T06:58:39;93354.66;;;1.90;nan
23166;BME280;11751;42.700;24.170;2023-01-28T07:01:04;93358.97;;;2.04;nan
23166;BME280;11751;42.700;24.170;2023-01-28T07:03:30;93365.56;;;2.20;nan
23166;BME280;11751;42.700;24.170;2023-01-28T07:05:55;93362.16;;;2.32;nan
23166;BME280;11751;42.700;24.170;2023-01-28T07:08:20;93363.03;;;2.40;nan
23166;BME280;11751;42.700;24.170;2023-01-28T07:10:45;93367.28;;;2.41;nan
23166;BME280;11751;42.700;24.170;2023-01-28T07:13:11;93366.41;;;2.52;nan
23166;BME280;11751;42.700;24.170;2023-01-28T07:15:36;93368.88;;;2.55;nan
23166;BME280;11751;42.700;24.170;2023-01-28T07:18:02;93376.13;;;2.58;nan
23166;BME280;11751;42.700;24.170;2023-01-28T07:20:27;93388.97;;;2.74;nan
23166;BME280;11751;42.700;24.170;2023-01-28T07:22:52;93382.53;;;2.84;nan
23166;BME280;11751;42.700;24.170;2023-01-28T07:25:18;93385.28;;;2.84;nan
23166;BME280;11751;42.700;24.170;2023-01-28T07:27:47;93383.63;;;2.94;nan
23166;BME280;11751;42.700;24.170;2023-01-28T07:30:13;93392.06;;;3.02;nan
23166;BME280;11751;42.700;24.170;2023-01-28T07:32:38;93396.56;;;3.05;nan
23166;BME280;11751;42.700;24.170;2023-01-28T07:35:03;93387.97;;;3.08;nan
23166;BME280;11751;42.700;24.170;2023-01-28T07:37:29;93391.28;;;2.70;nan
23166;BME280;11751;42.700;24.170;2023-01-28T07:39:54;93391.19;;;2.75;nan
23166;BME280;11751;42.700;24.170;2023-01-28T07:42:19;93392.69;;;2.76;nan
23166;BME280;11751;42.700;24.170;2023-01-28T07:44:45;93392.00;;;2.89;nan
23166;BME280;11751;42.700;24.170;2023-01-28T07:47:10;93388.66;;;2.96;nan
23166;BME280;11751;42.700;24.170;2023-01-28T07:49:35;93396.16;;;3.14;nan
23166;BME280;11751;42.700;24.170;2023-01-28T07:52:03;93395.72;;;3.10;nan
23166;BME280;11751;42.700;24.170;2023-01-28T07:54:29;93397.59;;;3.20;nan
23166;BME280;11751;42.700;24.170;2023-01-28T07:56:54;93403.94;;;3.15;nan
23166;BME280;11751;42.700;24.170;2023-01-28T07:59:19;93397.72;;;3.28;nan
23166;BME280;11751;42.700;24.170;2023-01-28T08:01:44;93400.28;;;3.38;nan
23166;BME280;11751;42.700;24.170;2023-01-28T08:04:10;93407.84;;;3.38;nan
23166;BME280;11751;42.700;24.170;2023-01-28T08:06:35;93411.19;;;3.49;nan
23166;BME280;11751;42.700;24.170;2023-01-28T08:09:04;93419.84;;;3.59;nan
23166;BME280;11751;42.700;24.170;2023-01-28T08:11:32;93428.00;;;3.51;nan
23166;BME280;11751;42.700;24.170;2023-01-28T08:13:57;93428.16;;;3.59;nan
23166;BME280;11751;42.700;24.170;2023-01-28T08:16:23;93436.59;;;3.66;nan
23166;BME280;11751;42.700;24.170;2023-01-28T08:18:48;93424.00;;;3.65;nan
23166;BME280;11751;42.700;24.170;2023-01-28T08:21:13;93430.78;;;3.51;nan
23166;BME280;11751;42.700;24.170;2023-01-28T08:23:39;93433.41;;;3.75;nan
23166;BME280;11751;42.700;24.170;2023-01-28T08:26:05;93437.16;;;3.91;nan
23166;BME280;11751;42.700;24.170;2023-01-28T08:28:30;93434.72;;;4.00;nan
23166;BME280;11751;42.700;24.170;2023-01-28T08:30:58;93438.25;;;3.56;nan
23166;BME280;11751;42.700;24.170;2023-01-28T08:33:23;93436.78;;;3.68;nan
23166;BME280;11751;42.700;24.170;2023-01-28T08:35:48;93436.63;;;3.92;nan
23166;BME280;11751;42.700;24.170;2023-01-28T08:38:14;93446.84;;;3.97;nan
23166;BME280;11751;42.700;24.170;2023-01-28T08:40:40;93436.66;;;4.18;nan
23166;BME280;11751;42.700;24.170;2023-01-28T08:43:05;93448.50;;;4.31;nan
23166;BME280;11751;42.700;24.170;2023-01-28T08:45:31;93441.47;;;4.43;nan
23166;BME280;11751;42.700;24.170;2023-01-28T08:48:00;93439.97;;;4.42;nan
23166;BME280;11751;42.700;24.170;2023-01-28T08:50:26;93439.00;;;4.14;nan
23166;BME280;11751;42.700;24.170;2023-01-28T08:52:56;93443.47;;;4.30;nan
23166;BME280;11751;42.700;24.170;2023-01-28T08:55:22;93440.50;;;4.41;nan
23166;BME280;11751;42.700;24.170;2023-01-28T08:57:47;93446.13;;;4.61;nan
23166;BME280;11751;42.700;24.170;2023-01-28T09:00:13;93443.03;;;4.78;nan
23166;BME280;11751;42.700;24.170;2023-01-28T09:02:38;93444.19;;;4.82;nan
23166;BME280;11751;42.700;24.170;2023-01-28T09:05:04;93443.63;;;4.97;nan
23166;BME280;11751;42.700;24.170;2023-01-28T09:07:30;93445.66;;;5.09;nan
23166;BME280;11751;42.700;24.170;2023-01-28T09:09:55;93450.31;;;5.27;nan
23166;BME280;11751;42.700;24.170;2023-01-28T09:12:20;93448.00;;;5.38;nan
23166;BME280;11751;42.700;24.170;2023-01-28T09:14:46;93444.91;;;5.42;nan
23166;BME280;11751;42.700;24.170;2023-01-28T09:17:11;93446.72;;;5.39;nan
23166;BME280;11751;42.700;24.170;2023-01-28T09:19:36;93447.75;;;5.49;nan
23166;BME280;11751;42.700;24.170;2023-01-28T09:22:02;93443.72;;;5.50;nan
23166;BME280;11751;42.700;24.170;2023-01-28T09:24:27;93446.28;;;5.48;nan
23166;BME280;11751;42.700;24.170;2023-01-28T09:26:53;93444.31;;;5.56;nan
23166;BME280;11751;42.700;24.170;2023-01-28T09:29:18;93438.75;;;5.56;nan
23166;BME280;11751;42.700;24.170;2023-01-28T09:31:43;93432.94;;;5.67;nan
23166;BME280;11751;42.700;24.170;2023-01-28T09:34:09;93435.13;;;5.61;nan
23166;BME280;11751;42.700;24.170;2023-01-28T09:36:34;93439.09;;;5.32;nan
23166;BME280;11751;42.700;24.170;2023-01-28T09:39:00;93439.91;;;4.94;nan
23166;BME280;11751;42.700;24.170;2023-01-28T09:46:16;93434.72;;;4.78;nan
23166;BME280;11751;42.700;24.170;2023-01-28T09:48:46;93439.44;;;4.44;nan
23166;BME280;11751;42.700;24.170;2023-01-28T09:51:32;93443.28;;;4.15;nan
23166;BME280;11751;42.700;24.170;2023-01-28T09:54:04;93454.56;;;4.17;nan
23166;BME280;11751;42.700;24.170;2023-01-28T09:56:38;93444.53;;;4.27;nan
23166;BME280;11751;42.700;24.170;2023-01-28T09:59:10;93451.16;;;4.24;nan
23166;BME280;11751;42.700;24.170;2023-01-28T10:01:40;93441.78;;;4.14;nan
23166;BME280;11751;42.700;24.170;2023-01-28T10:12:30;93439.84;;;4.74;nan
23166;BME280;11751;42.700;24.170;2023-01-28T10:17:46;93435.09;;;4.95;nan
23166;BME280;11751;42.700;24.170;2023-01-28T10:20:19;93435.88;;;5.28;nan
23166;BME280;11751;42.700;24.170;2023-01-28T10:25:16;93446.97;;;4.95;nan
23166;BME280;11751;42.700;24.170;2023-01-28T10:27:42;93444.31;;;5.23;nan
23166;BME280;11751;42.700;24.170;2023-01-28T10:30:19;93448.47;;;5.29;nan
23166;BME280;11751;42.700;24.170;2023-01-28T10:32:48;93443.50;;;5.48;nan
23166;BME280;11751;42.700;24.170;2023-01-28T10:35:15;93440.94;;;5.50;nan
23166;BME280;11751;42.700;24.170;2023-01-28T10:37:40;93441.81;;;5.66;nan
23166;BME280;11751;42.700;24.170;2023-01-28T10:40:06;93439.84;;;5.74;nan
23166;BME280;11751;42.700;24.170;2023-01-28T10:42:37;93447.78;;;5.70;nan
23166;BME280;11751;42.700;24.170;2023-01-28T10:45:22;93449.63;;;5.34;nan
23166;BME280;11751;42.700;24.170;2023-01-28T10:47:53;93455.38;;;5.03;nan
23166;BME280;11751;42.700;24.170;2023-01-28T10:50:24;93445.16;;;5.31;nan
23166;BME280;11751;42.700;24.170;2023-01-28T10:52:56;93454.34;;;4.93;nan
23166;BME280;11751;42.700;24.170;2023-01-28T10:55:22;93455.53;;;4.58;nan
23166;BME280;11751;42.700;24.170;2023-01-28T10:57:48;93451.56;;;4.80;nan
23166;BME280;11751;42.700;24.170;2023-01-28T11:02:42;93455.63;;;4.79;nan
23166;BME280;11751;42.700;24.170;2023-01-28T11:05:17;93454.22;;;4.85;nan
23166;BME280;11751;42.700;24.170;2023-01-28T11:07:44;93453.69;;;4.87;nan
23166;BME280;11751;42.700;24.170;2023-01-28T11:12:53;93450.91;;;4.87;nan
23166;BME280;11751;42.700;24.170;2023-01-28T11:15:18;93451.22;;;5.09;nan
23166;BME280;11751;42.700;24.170;2023-01-28T11:17:45;93457.50;;;5.09;nan
23166;BME280;11751;42.700;24.170;2023-01-28T11:20:19;93450.06;;;4.92;nan
23166;BME280;11751;42.700;24.170;2023-01-28T11:22:46;93450.50;;;4.83;nan
23166;BME280;11751;42.700;24.170;2023-01-28T11:25:20;93456.94;;;4.65;nan
23166;BME280;11751;42.700;24.170;2023-01-28T11:27:48;93453.50;;;4.59;nan
23166;BME280;11751;42.700;24.170;2023-01-28T11:30:19;93453.63;;;4.53;nan
23166;BME280;11751;42.700;24.170;2023-01-28T11:32:52;93444.13;;;4.62;nan
23166;BME280;11751;42.700;24.170;2023-01-28T11:35:26;93449.47;;;4.60;nan
23166;BME280;11751;42.700;24.170;2023-01-28T11:37:54;93448.34;;;4.89;nan
23166;BME280;11751;42.700;24.170;2023-01-28T11:40:19;93451.34;;;5.04;nan
23166;BME280;11751;42.700;24.170;2023-01-28T11:42:53;93450.88;;;5.12;nan
23166;BME280;11751;42.700;24.170;2023-01-28T11:45:25;93448.28;;;5.14;nan
23166;BME280;11751;42.700;24.170;2023-01-28T11:50:24;93452.56;;;5.15;nan
23166;BME280;11751;42.700;24.170;2023-01-28T11:57:57;93457.34;;;5.28;nan
23166;BME280;11751;42.700;24.170;2023-01-28T12:00:29;93446.59;;;5.11;nan
23166;BME280;11751;42.700;24.170;2023-01-28T12:03:12;93450.53;;;5.16;nan
23166;BME280;11751;42.700;24.170;2023-01-28T12:21:46;93452.56;;;5.49;nan
23166;BME280;11751;42.700;24.170;2023-01-28T12:37:06;93464.59;;;4.59;nan
23166;BME280;11751;42.700;24.170;2023-01-28T12:39:38;93460.88;;;4.69;nan
23166;BME280;11751;42.700;24.170;2023-01-28T12:47:44;93467.47;;;4.53;nan
23166;BME280;11751;42.700;24.170;2023-01-28T12:50:13;93468.63;;;4.58;nan
23166;BME280;11751;42.700;24.170;2023-01-28T12:52:45;93477.41;;;4.75;nan
23166;BME280;11751;42.700;24.170;2023-01-28T12:55:16;93473.75;;;4.41;nan
23166;BME280;11751;42.700;24.170;2023-01-28T12:57:43;93475.28;;;4.55;nan
23166;BME280;11751;42.700;24.170;2023-01-28T13:00:29;93483.69;;;4.49;nan
23166;BME280;11751;42.700;24.170;2023-01-28T13:05:30;93482.31;;;4.43;nan
23166;BME280;11751;42.700;24.170;2023-01-28T13:12:53;93506.59;;;4.24;nan
23166;BME280;11751;42.700;24.170;2023-01-28T13:15:19;93499.22;;;4.26;nan
23166;BME280;11751;42.700;24.170;2023-01-28T13:17:57;93507.19;;;4.04;nan
23166;BME280;11751;42.700;24.170;2023-01-28T13:20:57;93514.84;;;4.11;nan
23166;BME280;11751;42.700;24.170;2023-01-28T13:25:50;93528.66;;;3.98;nan
23166;BME280;11751;42.700;24.170;2023-01-28T13:28:37;93527.75;;;4.09;nan
23166;BME280;11751;42.700;24.170;2023-01-28T13:31:06;93526.13;;;4.00;nan
23166;BME280;11751;42.700;24.170;2023-01-28T13:33:36;93533.78;;;3.94;nan
23166;BME280;11751;42.700;24.170;2023-01-28T13:36:17;93534.03;;;4.09;nan
23166;BME280;11751;42.700;24.170;2023-01-28T13:38:45;93529.56;;;4.06;nan
23166;BME280;11751;42.700;24.170;2023-01-28T13:41:10;93541.25;;;3.99;nan
23166;BME280;11751;42.700;24.170;2023-01-28T13:43:37;93542.34;;;4.09;nan
23166;BME280;11751;42.700;24.170;2023-01-28T13:46:05;93538.69;;;4.01;nan
23166;BME280;11751;42.700;24.170;2023-01-28T13:48:38;93544.69;;;4.05;nan
23166;BME280;11751;42.700;24.170;2023-01-28T13:51:08;93557.44;;;3.95;nan
23166;BME280;11751;42.700;24.170;2023-01-28T13:53:40;93564.03;;;3.92;nan
23166;BME280;11751;42.700;24.170;2023-01-28T13:56:31;93562.84;;;3.88;nan
23166;BME280;11751;42.700;24.170;2023-01-28T14:07:51;93575.72;;;3.85;nan
23166;BME280;11751;42.700;24.170;2023-01-28T14:10:02;93586.34;;;3.63;nan
23166;BME280;11751;42.700;24.170;2023-01-28T14:15:19;93582.19;;;3.56;nan
23166;BME280;11751;42.700;24.170;2023-01-28T14:17:52;93580.31;;;3.64;nan
23166;BME280;11751;42.700;24.170;2023-01-28T14:20:19;93576.19;;;3.52;nan
23166;BME280;11751;42.700;24.170;2023-01-28T14:22:48;93580.69;;;3.55;nan
23166;BME280;11751;42.700;24.170;2023-01-28T14:25:15;93580.72;;;3.68;nan
23166;BME280;11751;42.700;24.170;2023-01-28T14:27:45;93589.50;;;3.54;nan
23166;BME280;11751;42.700;24.170;2023-01-28T14:30:19;93592.19;;;3.59;nan
23166;BME280;11751;42.700;24.170;2023-01-28T14:32:49;93591.28;;;3.51;nan
23166;BME280;11751;42.700;24.170;2023-01-28T14:35:28;93594.44;;;3.42;nan
23166;BME280;11751;42.700;24.170;2023-01-28T14:37:55;93595.19;;;3.25;nan
23166;BME280;11751;42.700;24.170;2023-01-28T14:40:21;93599.22;;;3.24;nan
23166;BME280;11751;42.700;24.170;2023-01-28T14:42:47;93602.22;;;3.26;nan
23166;BME280;11751;42.700;24.170;2023-01-28T14:50:28;93609.81;;;3.20;nan
23166;BME280;11751;42.700;24.170;2023-01-28T14:53:08;93615.47;;;3.09;nan
23166;BME280;11751;42.700;24.170;2023-01-28T14:55:48;93625.31;;;3.04;nan
23166;BME280;11751;42.700;24.170;2023-01-28T14:58:16;93624.59;;;3.04;nan
23166;BME280;11751;42.700;24.170;2023-01-28T15:00:52;93616.06;;;3.02;nan
23166;BME280;11751;42.700;24.170;2023-01-28T15:03:18;93611.84;;;2.95;nan
23166;BME280;11751;42.700;24.170;2023-01-28T15:05:44;93623.44;;;2.94;nan
23166;BME280;11751;42.700;24.170;2023-01-28T15:08:19;93623.22;;;2.92;nan
23166;BME280;11751;42.700;24.170;2023-01-28T15:10:45;93630.81;;;2.86;nan
23166;BME280;11751;42.700;24.170;2023-01-28T15:13:12;93635.09;;;2.87;nan
23166;BME280;11751;42.700;24.170;2023-01-28T15:15:39;93631.28;;;2.90;nan
23166;BME280;11751;42.700;24.170;2023-01-28T15:18:12;93635.09;;;2.87;nan
23166;BME280;11751;42.700;24.170;2023-01-28T15:20:49;93631.66;;;2.75;nan
23166;BME280;11751;42.700;24.170;2023-01-28T15:23:16;93634.38;;;2.81;nan